sensor_id;sensor_type;location;lat;lon;timestamp;P1;durP1;ratioP1;P2;durP2;ratioP2
56401;SDS011;42299;35.160;26.100;2022-08-03T00:01:06;5.13;;;2.13;;
56401;SDS011;42299;35.160;26.100;2022-08-03T00:02:28;4.35;;;1.88;;
56401;SDS011;42299;35.160;26.100;2022-08-03T00:03:50;3.15;;;1.92;;
56401;SDS011;42299;35.160;26.100;2022-08-03T00:05:11;5.25;;;2.10;;
56401;SDS011;42299;35.160;26.100;2022-08-03T00:06:34;4.05;;;1.95;;
56401;SDS011;42299;35.160;26.100;2022-08-03T00:07:57;6.53;;;2.55;;
56401;SDS011;42299;35.160;26.100;2022-08-03T00:09:18;4.47;;;2.20;;
56401;SDS011;42299;35.160;26.100;2022-08-03T00:10:41;4.75;;;2.17;;
56401;SDS011;42299;35.160;26.100;2022-08-03T00:12:02;3.05;;;1.65;;
56401;SDS011;42299;35.160;26.100;2022-08-03T00:13:25;3.15;;;2.13;;
56401;SDS011;42299;35.160;26.100;2022-08-03T00:14:48;4.30;;;1.90;;
56401;SDS011;42299;35.160;26.100;2022-08-03T00:16:11;6.53;;;2.15;;
56401;SDS011;42299;35.160;26.100;2022-08-03T00:17:34;5.80;;;2.95;;
56401;SDS011;42299;35.160;26.100;2022-08-03T00:18:55;2.03;;;1.50;;
56401;SDS011;42299;35.160;26.100;2022-08-03T00:20:17;3.88;;;2.08;;
56401;SDS011;42299;35.160;26.100;2022-08-03T00:21:39;3.33;;;1.58;;
56401;SDS011;42299;35.160;26.100;2022-08-03T00:23:02;5.60;;;2.13;;
56401;SDS011;42299;35.160;26.100;2022-08-03T00:24:24;6.82;;;2.03;;
56401;SDS011;42299;35.160;26.100;2022-08-03T00:25:47;3.50;;;2.05;;
56401;SDS011;42299;35.160;26.100;2022-08-03T00:27:09;7.40;;;2.17;;
56401;SDS011;42299;35.160;26.100;2022-08-03T00:28:31;6.63;;;2.15;;
56401;SDS011;42299;35.160;26.100;2022-08-03T00:29:53;6.20;;;2.03;;
56401;SDS011;42299;35.160;26.100;2022-08-03T00:31:16;4.18;;;2.00;;
56401;SDS011;42299;35.160;26.100;2022-08-03T00:32:38;7.95;;;2.45;;
56401;SDS011;42299;35.160;26.100;2022-08-03T00:34:00;3.13;;;1.75;;
56401;SDS011;42299;35.160;26.100;2022-08-03T00:35:22;7.88;;;2.60;;
56401;SDS011;42299;35.160;26.100;2022-08-03T00:36:44;7.55;;;1.95;;
56401;SDS011;42299;35.160;26.100;2022-08-03T00:38:07;3.60;;;1.83;;
56401;SDS011;42299;35.160;26.100;2022-08-03T00:39:29;4.80;;;2.35;;
56401;SDS011;42299;35.160;26.100;2022-08-03T00:40:51;5.93;;;2.55;;
56401;SDS011;42299;35.160;26.100;2022-08-03T00:42:13;8.32;;;3.08;;
56401;SDS011;42299;35.160;26.100;2022-08-03T00:43:35;5.03;;;1.92;;
56401;SDS011;42299;35.160;26.100;2022-08-03T00:44:57;6.25;;;2.28;;
56401;SDS011;42299;35.160;26.100;2022-08-03T00:46:20;6.53;;;2.83;;
56401;SDS011;42299;35.160;26.100;2022-08-03T00:47:43;4.85;;;2.10;;
56401;SDS011;42299;35.160;26.100;2022-08-03T00:49:04;9.02;;;2.35;;
56401;SDS011;42299;35.160;26.100;2022-08-03T00:50:28;4.13;;;2.22;;
56401;SDS011;42299;35.160;26.100;2022-08-03T00:51:50;4.57;;;2.50;;
56401;SDS011;42299;35.160;26.100;2022-08-03T00:53:13;8.00;;;2.00;;
56401;SDS011;42299;35.160;26.100;2022-08-03T00:54:34;5.15;;;1.88;;
56401;SDS011;42299;35.160;26.100;2022-08-03T00:55:58;4.93;;;2.40;;
56401;SDS011;42299;35.160;26.100;2022-08-03T00:57:20;4.30;;;2.10;;
56401;SDS011;42299;35.160;26.100;2022-08-03T00:58:42;7.30;;;2.10;;
56401;SDS011;42299;35.160;26.100;2022-08-03T01:00:06;6.15;;;2.10;;
56401;SDS011;42299;35.160;26.100;2022-08-03T01:01:32;3.60;;;1.95;;
56401;SDS011;42299;35.160;26.100;2022-08-03T01:02:54;4.07;;;1.85;;
56401;SDS011;42299;35.160;26.100;2022-08-03T01:04:16;8.38;;;2.30;;
56401;SDS011;42299;35.160;26.100;2022-08-03T01:05:39;3.38;;;2.17;;
56401;SDS011;42299;35.160;26.100;2022-08-03T01:07:10;5.85;;;2.50;;
56401;SDS011;42299;35.160;26.100;2022-08-03T01:08:40;5.78;;;1.90;;
56401;SDS011;42299;35.160;26.100;2022-08-03T01:10:09;4.72;;;2.20;;
56401;SDS011;42299;35.160;26.100;2022-08-03T01:11:38;4.47;;;2.30;;
56401;SDS011;42299;35.160;26.100;2022-08-03T01:13:14;5.03;;;2.30;;
56401;SDS011;42299;35.160;26.100;2022-08-03T01:14:43;6.60;;;1.98;;
56401;SDS011;42299;35.160;26.100;2022-08-03T01:16:13;9.30;;;2.50;;
56401;SDS011;42299;35.160;26.100;2022-08-03T01:17:43;4.93;;;2.17;;
56401;SDS011;42299;35.160;26.100;2022-08-03T01:19:12;4.70;;;2.05;;
56401;SDS011;42299;35.160;26.100;2022-08-03T01:20:53;4.22;;;2.65;;
56401;SDS011;42299;35.160;26.100;2022-08-03T01:24:29;4.93;;;2.00;;
56401;SDS011;42299;35.160;26.100;2022-08-03T01:26:12;5.50;;;2.78;;
56401;SDS011;42299;35.160;26.100;2022-08-03T01:27:54;4.57;;;2.55;;
56401;SDS011;42299;35.160;26.100;2022-08-03T01:29:35;9.02;;;2.40;;
56401;SDS011;42299;35.160;26.100;2022-08-03T01:31:07;7.18;;;2.50;;
56401;SDS011;42299;35.160;26.100;2022-08-03T01:32:38;5.75;;;2.30;;
56401;SDS011;42299;35.160;26.100;2022-08-03T01:34:07;6.13;;;2.60;;
56401;SDS011;42299;35.160;26.100;2022-08-03T01:35:34;5.53;;;2.50;;
56401;SDS011;42299;35.160;26.100;2022-08-03T01:37:00;3.42;;;1.92;;
56401;SDS011;42299;35.160;26.100;2022-08-03T01:38:26;4.78;;;2.17;;
56401;SDS011;42299;35.160;26.100;2022-08-03T01:39:54;4.70;;;1.85;;
56401;SDS011;42299;35.160;26.100;2022-08-03T01:41:24;5.38;;;2.38;;
56401;SDS011;42299;35.160;26.100;2022-08-03T01:42:53;4.57;;;2.10;;
56401;SDS011;42299;35.160;26.100;2022-08-03T01:44:15;6.68;;;2.40;;
56401;SDS011;42299;35.160;26.100;2022-08-03T01:45:40;6.15;;;2.28;;
56401;SDS011;42299;35.160;26.100;2022-08-03T01:47:05;6.97;;;2.17;;
56401;SDS011;42299;35.160;26.100;2022-08-03T01:48:27;9.15;;;2.42;;
56401;SDS011;42299;35.160;26.100;2022-08-03T01:49:51;6.97;;;2.15;;
56401;SDS011;42299;35.160;26.100;2022-08-03T01:51:14;6.03;;;2.30;;
56401;SDS011;42299;35.160;26.100;2022-08-03T01:52:39;8.63;;;2.58;;
56401;SDS011;42299;35.160;26.100;2022-08-03T01:54:04;8.50;;;2.35;;
56401;SDS011;42299;35.160;26.100;2022-08-03T01:55:28;6.68;;;2.30;;
56401;SDS011;42299;35.160;26.100;2022-08-03T01:56:53;8.13;;;2.45;;
56401;SDS011;42299;35.160;26.100;2022-08-03T01:58:18;5.68;;;2.13;;
56401;SDS011;42299;35.160;26.100;2022-08-03T01:59:42;6.65;;;2.42;;
56401;SDS011;42299;35.160;26.100;2022-08-03T02:01:09;4.95;;;2.10;;
56401;SDS011;42299;35.160;26.100;2022-08-03T02:02:33;5.65;;;2.13;;
56401;SDS011;42299;35.160;26.100;2022-08-03T02:03:58;5.93;;;2.15;;
56401;SDS011;42299;35.160;26.100;2022-08-03T02:05:20;4.60;;;2.20;;
56401;SDS011;42299;35.160;26.100;2022-08-03T02:06:43;6.22;;;2.28;;
56401;SDS011;42299;35.160;26.100;2022-08-03T02:08:06;7.53;;;2.25;;
56401;SDS011;42299;35.160;26.100;2022-08-03T02:09:31;4.13;;;2.10;;
56401;SDS011;42299;35.160;26.100;2022-08-03T02:10:57;6.88;;;2.20;;
56401;SDS011;42299;35.160;26.100;2022-08-03T02:12:21;5.38;;;2.22;;
56401;SDS011;42299;35.160;26.100;2022-08-03T02:13:44;8.60;;;2.63;;
56401;SDS011;42299;35.160;26.100;2022-08-03T02:15:09;6.07;;;2.33;;
56401;SDS011;42299;35.160;26.100;2022-08-03T02:16:35;4.93;;;2.25;;
56401;SDS011;42299;35.160;26.100;2022-08-03T02:17:56;5.32;;;2.58;;
56401;SDS011;42299;35.160;26.100;2022-08-03T02:19:21;5.60;;;2.67;;
56401;SDS011;42299;35.160;26.100;2022-08-03T02:20:44;7.25;;;2.80;;
56401;SDS011;42299;35.160;26.100;2022-08-03T02:22:09;4.57;;;1.98;;
56401;SDS011;42299;35.160;26.100;2022-08-03T02:23:33;4.40;;;1.77;;
56401;SDS011;42299;35.160;26.100;2022-08-03T02:24:56;5.35;;;2.47;;
56401;SDS011;42299;35.160;26.100;2022-08-03T02:26:17;5.35;;;2.15;;
56401;SDS011;42299;35.160;26.100;2022-08-03T02:27:45;5.95;;;2.40;;
56401;SDS011;42299;35.160;26.100;2022-08-03T02:29:12;7.43;;;2.88;;
56401;SDS011;42299;35.160;26.100;2022-08-03T02:30:38;6.18;;;1.88;;
56401;SDS011;42299;35.160;26.100;2022-08-03T02:32:05;9.20;;;2.30;;
56401;SDS011;42299;35.160;26.100;2022-08-03T02:33:30;6.00;;;2.72;;
56401;SDS011;42299;35.160;26.100;2022-08-03T02:34:57;5.95;;;2.03;;
56401;SDS011;42299;35.160;26.100;2022-08-03T02:36:22;2.72;;;2.08;;
56401;SDS011;42299;35.160;26.100;2022-08-03T02:37:49;8.20;;;2.38;;
56401;SDS011;42299;35.160;26.100;2022-08-03T02:39:14;4.30;;;1.98;;
56401;SDS011;42299;35.160;26.100;2022-08-03T02:40:40;3.75;;;2.10;;
56401;SDS011;42299;35.160;26.100;2022-08-03T02:42:05;3.55;;;2.40;;
56401;SDS011;42299;35.160;26.100;2022-08-03T02:43:30;4.15;;;1.98;;
56401;SDS011;42299;35.160;26.100;2022-08-03T02:44:56;2.88;;;2.15;;
56401;SDS011;42299;35.160;26.100;2022-08-03T02:46:23;7.25;;;2.40;;
56401;SDS011;42299;35.160;26.100;2022-08-03T02:47:49;5.13;;;2.05;;
56401;SDS011;42299;35.160;26.100;2022-08-03T02:49:16;8.00;;;2.50;;
56401;SDS011;42299;35.160;26.100;2022-08-03T02:50:40;4.40;;;2.10;;
56401;SDS011;42299;35.160;26.100;2022-08-03T02:52:04;4.70;;;1.98;;
56401;SDS011;42299;35.160;26.100;2022-08-03T02:53:32;8.75;;;3.30;;
56401;SDS011;42299;35.160;26.100;2022-08-03T02:54:55;7.82;;;2.40;;
56401;SDS011;42299;35.160;26.100;2022-08-03T02:56:19;7.70;;;2.60;;
56401;SDS011;42299;35.160;26.100;2022-08-03T02:57:43;4.35;;;2.25;;
56401;SDS011;42299;35.160;26.100;2022-08-03T02:59:06;5.28;;;2.08;;
56401;SDS011;42299;35.160;26.100;2022-08-03T03:00:30;5.95;;;2.38;;
56401;SDS011;42299;35.160;26.100;2022-08-03T03:01:53;5.70;;;2.35;;
56401;SDS011;42299;35.160;26.100;2022-08-03T03:03:16;7.93;;;2.40;;
56401;SDS011;42299;35.160;26.100;2022-08-03T03:04:40;9.40;;;2.47;;
56401;SDS011;42299;35.160;26.100;2022-08-03T03:06:02;5.60;;;2.50;;
56401;SDS011;42299;35.160;26.100;2022-08-03T03:07:26;8.52;;;2.40;;
56401;SDS011;42299;35.160;26.100;2022-08-03T03:08:47;5.68;;;2.33;;
56401;SDS011;42299;35.160;26.100;2022-08-03T03:10:10;9.43;;;2.53;;
56401;SDS011;42299;35.160;26.100;2022-08-03T03:11:33;4.22;;;2.40;;
56401;SDS011;42299;35.160;26.100;2022-08-03T03:12:59;5.47;;;2.55;;
56401;SDS011;42299;35.160;26.100;2022-08-03T03:14:23;6.05;;;3.03;;
56401;SDS011;42299;35.160;26.100;2022-08-03T03:15:47;4.22;;;2.03;;
56401;SDS011;42299;35.160;26.100;2022-08-03T03:17:11;4.35;;;2.22;;
56401;SDS011;42299;35.160;26.100;2022-08-03T03:18:38;7.35;;;2.20;;
56401;SDS011;42299;35.160;26.100;2022-08-03T03:20:01;7.47;;;2.50;;
56401;SDS011;42299;35.160;26.100;2022-08-03T03:21:26;5.80;;;2.58;;
56401;SDS011;42299;35.160;26.100;2022-08-03T03:22:48;5.90;;;2.03;;
56401;SDS011;42299;35.160;26.100;2022-08-03T03:24:12;4.88;;;2.25;;
56401;SDS011;42299;35.160;26.100;2022-08-03T03:25:35;4.78;;;2.00;;
56401;SDS011;42299;35.160;26.100;2022-08-03T03:26:59;6.05;;;2.58;;
56401;SDS011;42299;35.160;26.100;2022-08-03T03:28:20;7.45;;;2.00;;
56401;SDS011;42299;35.160;26.100;2022-08-03T03:29:44;4.78;;;2.53;;
56401;SDS011;42299;35.160;26.100;2022-08-03T03:31:07;8.27;;;3.15;;
56401;SDS011;42299;35.160;26.100;2022-08-03T03:32:30;6.40;;;2.20;;
56401;SDS011;42299;35.160;26.100;2022-08-03T03:33:54;6.28;;;2.72;;
56401;SDS011;42299;35.160;26.100;2022-08-03T03:35:18;6.90;;;2.25;;
56401;SDS011;42299;35.160;26.100;2022-08-03T03:36:40;5.38;;;2.67;;
56401;SDS011;42299;35.160;26.100;2022-08-03T03:38:03;6.00;;;2.17;;
56401;SDS011;42299;35.160;26.100;2022-08-03T03:39:24;5.28;;;2.40;;
56401;SDS011;42299;35.160;26.100;2022-08-03T03:40:47;6.10;;;2.45;;
56401;SDS011;42299;35.160;26.100;2022-08-03T03:42:09;8.98;;;2.00;;
56401;SDS011;42299;35.160;26.100;2022-08-03T03:43:32;6.70;;;2.53;;
56401;SDS011;42299;35.160;26.100;2022-08-03T03:44:54;5.82;;;1.90;;
56401;SDS011;42299;35.160;26.100;2022-08-03T03:46:17;7.00;;;2.38;;
56401;SDS011;42299;35.160;26.100;2022-08-03T03:47:39;8.85;;;2.80;;
56401;SDS011;42299;35.160;26.100;2022-08-03T03:49:02;4.72;;;2.08;;
56401;SDS011;42299;35.160;26.100;2022-08-03T03:50:27;5.38;;;2.22;;
56401;SDS011;42299;35.160;26.100;2022-08-03T03:51:51;5.18;;;1.98;;
56401;SDS011;42299;35.160;26.100;2022-08-03T03:53:14;4.03;;;1.95;;
56401;SDS011;42299;35.160;26.100;2022-08-03T03:54:39;7.00;;;2.30;;
56401;SDS011;42299;35.160;26.100;2022-08-03T03:56:03;7.82;;;2.67;;
56401;SDS011;42299;35.160;26.100;2022-08-03T03:57:25;2.70;;;1.80;;
56401;SDS011;42299;35.160;26.100;2022-08-03T04:00:10;6.25;;;2.00;;
56401;SDS011;42299;35.160;26.100;2022-08-03T04:01:32;3.65;;;1.75;;
56401;SDS011;42299;35.160;26.100;2022-08-03T04:02:55;4.63;;;2.08;;
56401;SDS011;42299;35.160;26.100;2022-08-03T04:04:18;7.68;;;2.30;;
56401;SDS011;42299;35.160;26.100;2022-08-03T04:05:57;14.93;;;3.33;;
56401;SDS011;42299;35.160;26.100;2022-08-03T04:07:51;4.90;;;1.85;;
56401;SDS011;42299;35.160;26.100;2022-08-03T04:09:35;2.97;;;1.85;;
56401;SDS011;42299;35.160;26.100;2022-08-03T04:11:18;3.75;;;1.90;;
56401;SDS011;42299;35.160;26.100;2022-08-03T04:12:43;6.88;;;1.98;;
56401;SDS011;42299;35.160;26.100;2022-08-03T04:14:08;4.32;;;1.77;;
56401;SDS011;42299;35.160;26.100;2022-08-03T04:15:34;5.25;;;1.95;;
56401;SDS011;42299;35.160;26.100;2022-08-03T04:16:58;3.97;;;2.15;;
56401;SDS011;42299;35.160;26.100;2022-08-03T04:18:23;4.20;;;1.75;;
56401;SDS011;42299;35.160;26.100;2022-08-03T04:19:49;3.88;;;2.25;;
56401;SDS011;42299;35.160;26.100;2022-08-03T04:21:14;2.45;;;1.75;;
56401;SDS011;42299;35.160;26.100;2022-08-03T04:22:39;2.97;;;1.58;;
56401;SDS011;42299;35.160;26.100;2022-08-03T04:24:02;6.40;;;1.90;;
56401;SDS011;42299;35.160;26.100;2022-08-03T04:25:29;4.40;;;1.90;;
56401;SDS011;42299;35.160;26.100;2022-08-03T04:26:52;5.53;;;1.85;;
56401;SDS011;42299;35.160;26.100;2022-08-03T04:28:17;4.65;;;1.98;;
56401;SDS011;42299;35.160;26.100;2022-08-03T04:29:40;6.15;;;1.90;;
56401;SDS011;42299;35.160;26.100;2022-08-03T04:31:08;5.85;;;1.80;;
56401;SDS011;42299;35.160;26.100;2022-08-03T04:35:15;3.13;;;1.52;;
56401;SDS011;42299;35.160;26.100;2022-08-03T04:36:41;3.25;;;1.55;;
56401;SDS011;42299;35.160;26.100;2022-08-03T04:38:08;4.15;;;1.48;;
56401;SDS011;42299;35.160;26.100;2022-08-03T04:39:34;4.38;;;1.70;;
56401;SDS011;42299;35.160;26.100;2022-08-03T04:40:59;6.95;;;2.13;;
56401;SDS011;42299;35.160;26.100;2022-08-03T04:45:06;6.25;;;1.90;;
56401;SDS011;42299;35.160;26.100;2022-08-03T04:46:33;6.68;;;1.58;;
56401;SDS011;42299;35.160;26.100;2022-08-03T04:47:59;4.95;;;1.90;;
56401;SDS011;42299;35.160;26.100;2022-08-03T04:49:21;3.30;;;1.67;;
56401;SDS011;42299;35.160;26.100;2022-08-03T04:50:47;7.05;;;1.83;;
56401;SDS011;42299;35.160;26.100;2022-08-03T04:52:09;3.10;;;1.75;;
56401;SDS011;42299;35.160;26.100;2022-08-03T04:53:34;2.33;;;1.35;;
56401;SDS011;42299;35.160;26.100;2022-08-03T04:54:57;8.05;;;2.15;;
56401;SDS011;42299;35.160;26.100;2022-08-03T04:56:19;4.90;;;1.88;;
56401;SDS011;42299;35.160;26.100;2022-08-03T04:57:41;4.60;;;1.90;;
56401;SDS011;42299;35.160;26.100;2022-08-03T04:59:03;3.15;;;1.58;;
56401;SDS011;42299;35.160;26.100;2022-08-03T05:00:25;3.83;;;2.00;;
56401;SDS011;42299;35.160;26.100;2022-08-03T05:01:48;3.67;;;1.42;;
56401;SDS011;42299;35.160;26.100;2022-08-03T05:03:11;4.13;;;1.85;;
56401;SDS011;42299;35.160;26.100;2022-08-03T05:04:33;6.20;;;2.35;;
56401;SDS011;42299;35.160;26.100;2022-08-03T05:05:58;4.90;;;1.92;;
56401;SDS011;42299;35.160;26.100;2022-08-03T05:07:20;5.90;;;1.98;;
56401;SDS011;42299;35.160;26.100;2022-08-03T05:08:43;3.90;;;1.88;;
56401;SDS011;42299;35.160;26.100;2022-08-03T05:10:06;6.40;;;2.03;;
56401;SDS011;42299;35.160;26.100;2022-08-03T05:11:28;4.07;;;1.95;;
56401;SDS011;42299;35.160;26.100;2022-08-03T05:12:51;5.45;;;1.63;;
56401;SDS011;42299;35.160;26.100;2022-08-03T05:14:14;2.80;;;1.50;;
56401;SDS011;42299;35.160;26.100;2022-08-03T05:15:36;4.78;;;1.73;;
56401;SDS011;42299;35.160;26.100;2022-08-03T05:16:59;4.75;;;1.95;;
56401;SDS011;42299;35.160;26.100;2022-08-03T05:18:20;5.63;;;1.70;;
56401;SDS011;42299;35.160;26.100;2022-08-03T05:19:43;6.75;;;1.80;;
56401;SDS011;42299;35.160;26.100;2022-08-03T05:21:07;4.20;;;1.70;;
56401;SDS011;42299;35.160;26.100;2022-08-03T05:22:30;4.75;;;1.63;;
56401;SDS011;42299;35.160;26.100;2022-08-03T05:23:52;3.97;;;1.80;;
56401;SDS011;42299;35.160;26.100;2022-08-03T05:25:15;5.65;;;1.67;;
56401;SDS011;42299;35.160;26.100;2022-08-03T05:26:37;4.53;;;1.70;;
56401;SDS011;42299;35.160;26.100;2022-08-03T05:27:59;6.20;;;1.52;;
56401;SDS011;42299;35.160;26.100;2022-08-03T05:29:21;3.40;;;1.67;;
56401;SDS011;42299;35.160;26.100;2022-08-03T05:30:43;3.20;;;1.40;;
56401;SDS011;42299;35.160;26.100;2022-08-03T05:32:05;3.80;;;1.58;;
56401;SDS011;42299;35.160;26.100;2022-08-03T05:33:28;6.32;;;1.73;;
56401;SDS011;42299;35.160;26.100;2022-08-03T05:34:50;3.58;;;1.60;;
56401;SDS011;42299;35.160;26.100;2022-08-03T05:36:13;3.95;;;1.63;;
56401;SDS011;42299;35.160;26.100;2022-08-03T05:37:36;8.43;;;2.58;;
56401;SDS011;42299;35.160;26.100;2022-08-03T05:38:57;5.63;;;1.88;;
56401;SDS011;42299;35.160;26.100;2022-08-03T05:40:19;7.53;;;1.75;;
56401;SDS011;42299;35.160;26.100;2022-08-03T05:41:41;5.55;;;1.70;;
56401;SDS011;42299;35.160;26.100;2022-08-03T05:43:03;5.53;;;1.65;;
56401;SDS011;42299;35.160;26.100;2022-08-03T05:44:25;4.60;;;1.80;;
56401;SDS011;42299;35.160;26.100;2022-08-03T05:45:47;3.90;;;1.45;;
56401;SDS011;42299;35.160;26.100;2022-08-03T05:47:10;6.40;;;1.90;;
56401;SDS011;42299;35.160;26.100;2022-08-03T05:48:32;4.78;;;1.70;;
56401;SDS011;42299;35.160;26.100;2022-08-03T05:49:55;9.80;;;2.00;;
56401;SDS011;42299;35.160;26.100;2022-08-03T05:51:19;9.55;;;1.55;;
56401;SDS011;42299;35.160;26.100;2022-08-03T05:52:42;5.60;;;1.70;;
56401;SDS011;42299;35.160;26.100;2022-08-03T05:54:03;3.63;;;1.58;;
56401;SDS011;42299;35.160;26.100;2022-08-03T05:55:26;5.18;;;1.30;;
56401;SDS011;42299;35.160;26.100;2022-08-03T05:56:49;6.10;;;1.70;;
56401;SDS011;42299;35.160;26.100;2022-08-03T05:58:10;6.57;;;1.58;;
56401;SDS011;42299;35.160;26.100;2022-08-03T05:59:34;4.90;;;1.42;;
56401;SDS011;42299;35.160;26.100;2022-08-03T06:00:58;5.10;;;1.60;;
56401;SDS011;42299;35.160;26.100;2022-08-03T06:02:21;4.22;;;1.63;;
56401;SDS011;42299;35.160;26.100;2022-08-03T06:03:43;3.13;;;1.42;;
56401;SDS011;42299;35.160;26.100;2022-08-03T06:05:06;3.83;;;1.38;;
56401;SDS011;42299;35.160;26.100;2022-08-03T06:06:30;4.57;;;1.92;;
56401;SDS011;42299;35.160;26.100;2022-08-03T06:07:53;2.88;;;1.25;;
56401;SDS011;42299;35.160;26.100;2022-08-03T06:09:14;5.00;;;1.50;;
56401;SDS011;42299;35.160;26.100;2022-08-03T06:10:37;4.05;;;1.60;;
56401;SDS011;42299;35.160;26.100;2022-08-03T06:12:00;4.60;;;1.50;;
56401;SDS011;42299;35.160;26.100;2022-08-03T06:13:21;5.93;;;1.77;;
56401;SDS011;42299;35.160;26.100;2022-08-03T06:14:43;4.68;;;1.70;;
56401;SDS011;42299;35.160;26.100;2022-08-03T06:16:05;2.42;;;1.02;;
56401;SDS011;42299;35.160;26.100;2022-08-03T06:17:27;3.75;;;1.50;;
56401;SDS011;42299;35.160;26.100;2022-08-03T06:18:49;3.15;;;1.55;;
56401;SDS011;42299;35.160;26.100;2022-08-03T06:20:11;3.70;;;1.33;;
56401;SDS011;42299;35.160;26.100;2022-08-03T06:21:36;4.60;;;1.83;;
56401;SDS011;42299;35.160;26.100;2022-08-03T06:22:58;3.45;;;1.30;;
56401;SDS011;42299;35.160;26.100;2022-08-03T06:24:22;4.22;;;1.50;;
56401;SDS011;42299;35.160;26.100;2022-08-03T06:25:44;2.47;;;1.23;;
56401;SDS011;42299;35.160;26.100;2022-08-03T06:27:07;3.38;;;1.33;;
56401;SDS011;42299;35.160;26.100;2022-08-03T06:28:31;6.88;;;1.80;;
56401;SDS011;42299;35.160;26.100;2022-08-03T06:29:54;6.00;;;1.75;;
56401;SDS011;42299;35.160;26.100;2022-08-03T06:31:16;4.53;;;1.40;;
56401;SDS011;42299;35.160;26.100;2022-08-03T06:32:38;5.65;;;1.75;;
56401;SDS011;42299;35.160;26.100;2022-08-03T06:34:01;4.85;;;1.27;;
56401;SDS011;42299;35.160;26.100;2022-08-03T06:35:25;3.17;;;1.50;;
56401;SDS011;42299;35.160;26.100;2022-08-03T06:36:49;2.83;;;1.25;;
56401;SDS011;42299;35.160;26.100;2022-08-03T06:38:11;5.57;;;1.30;;
56401;SDS011;42299;35.160;26.100;2022-08-03T06:39:33;3.50;;;1.25;;
56401;SDS011;42299;35.160;26.100;2022-08-03T06:40:56;3.72;;;1.17;;
56401;SDS011;42299;35.160;26.100;2022-08-03T06:42:17;7.55;;;1.55;;
56401;SDS011;42299;35.160;26.100;2022-08-03T06:43:39;4.05;;;1.40;;
56401;SDS011;42299;35.160;26.100;2022-08-03T06:45:02;3.35;;;1.40;;
56401;SDS011;42299;35.160;26.100;2022-08-03T06:46:25;5.00;;;1.20;;
56401;SDS011;42299;35.160;26.100;2022-08-03T06:47:58;4.68;;;1.02;;
56401;SDS011;42299;35.160;26.100;2022-08-03T06:49:21;3.55;;;1.30;;
56401;SDS011;42299;35.160;26.100;2022-08-03T06:50:44;3.35;;;1.23;;
56401;SDS011;42299;35.160;26.100;2022-08-03T06:52:08;3.70;;;1.40;;
56401;SDS011;42299;35.160;26.100;2022-08-03T06:53:30;3.85;;;1.48;;
56401;SDS011;42299;35.160;26.100;2022-08-03T06:54:53;3.17;;;1.15;;
56401;SDS011;42299;35.160;26.100;2022-08-03T06:56:16;3.25;;;1.40;;
56401;SDS011;42299;35.160;26.100;2022-08-03T06:57:37;6.20;;;1.27;;
56401;SDS011;42299;35.160;26.100;2022-08-03T06:59:00;4.18;;;1.38;;
56401;SDS011;42299;35.160;26.100;2022-08-03T07:00:22;4.30;;;1.20;;
56401;SDS011;42299;35.160;26.100;2022-08-03T07:01:45;4.75;;;1.13;;
56401;SDS011;42299;35.160;26.100;2022-08-03T07:03:07;5.43;;;1.42;;
56401;SDS011;42299;35.160;26.100;2022-08-03T07:04:29;6.78;;;1.45;;
56401;SDS011;42299;35.160;26.100;2022-08-03T07:05:50;3.83;;;1.50;;
56401;SDS011;42299;35.160;26.100;2022-08-03T07:07:15;4.65;;;1.15;;
56401;SDS011;42299;35.160;26.100;2022-08-03T07:08:37;5.13;;;1.42;;
56401;SDS011;42299;35.160;26.100;2022-08-03T07:09:59;5.63;;;1.20;;
56401;SDS011;42299;35.160;26.100;2022-08-03T07:11:22;5.60;;;1.15;;
56401;SDS011;42299;35.160;26.100;2022-08-03T07:12:45;4.60;;;1.30;;
56401;SDS011;42299;35.160;26.100;2022-08-03T07:14:08;5.00;;;1.50;;
56401;SDS011;42299;35.160;26.100;2022-08-03T07:15:30;5.03;;;1.63;;
56401;SDS011;42299;35.160;26.100;2022-08-03T07:16:53;3.42;;;1.40;;
56401;SDS011;42299;35.160;26.100;2022-08-03T07:18:14;3.75;;;1.17;;
56401;SDS011;42299;35.160;26.100;2022-08-03T07:19:37;2.40;;;1.00;;
56401;SDS011;42299;35.160;26.100;2022-08-03T07:20:59;5.60;;;1.20;;
56401;SDS011;42299;35.160;26.100;2022-08-03T07:22:23;5.07;;;1.77;;
56401;SDS011;42299;35.160;26.100;2022-08-03T07:23:45;6.40;;;1.45;;
56401;SDS011;42299;35.160;26.100;2022-08-03T07:25:08;2.72;;;1.30;;
56401;SDS011;42299;35.160;26.100;2022-08-03T07:26:31;6.78;;;1.90;;
56401;SDS011;42299;35.160;26.100;2022-08-03T07:27:53;3.28;;;1.38;;
56401;SDS011;42299;35.160;26.100;2022-08-03T07:29:16;4.53;;;1.00;;
56401;SDS011;42299;35.160;26.100;2022-08-03T07:30:38;7.30;;;1.60;;
56401;SDS011;42299;35.160;26.100;2022-08-03T07:32:01;7.45;;;1.20;;
56401;SDS011;42299;35.160;26.100;2022-08-03T07:33:23;4.15;;;1.33;;
56401;SDS011;42299;35.160;26.100;2022-08-03T07:34:46;5.50;;;1.23;;
56401;SDS011;42299;35.160;26.100;2022-08-03T07:36:07;3.08;;;1.05;;
56401;SDS011;42299;35.160;26.100;2022-08-03T07:37:31;2.80;;;1.45;;
56401;SDS011;42299;35.160;26.100;2022-08-03T07:38:54;4.70;;;1.42;;
56401;SDS011;42299;35.160;26.100;2022-08-03T07:40:17;3.67;;;1.15;;
56401;SDS011;42299;35.160;26.100;2022-08-03T07:41:43;4.70;;;1.30;;
56401;SDS011;42299;35.160;26.100;2022-08-03T07:43:05;7.90;;;1.73;;
56401;SDS011;42299;35.160;26.100;2022-08-03T07:44:28;3.30;;;1.40;;
56401;SDS011;42299;35.160;26.100;2022-08-03T07:45:51;6.32;;;1.20;;
56401;SDS011;42299;35.160;26.100;2022-08-03T07:47:16;5.32;;;1.40;;
56401;SDS011;42299;35.160;26.100;2022-08-03T07:48:39;5.93;;;1.50;;
56401;SDS011;42299;35.160;26.100;2022-08-03T07:50:03;3.95;;;1.35;;
56401;SDS011;42299;35.160;26.100;2022-08-03T07:51:27;5.80;;;1.20;;
56401;SDS011;42299;35.160;26.100;2022-08-03T07:52:51;5.47;;;1.13;;
56401;SDS011;42299;35.160;26.100;2022-08-03T07:54:15;3.58;;;1.30;;
56401;SDS011;42299;35.160;26.100;2022-08-03T07:55:37;2.53;;;1.10;;
56401;SDS011;42299;35.160;26.100;2022-08-03T07:57:00;3.72;;;1.30;;
56401;SDS011;42299;35.160;26.100;2022-08-03T07:58:21;5.10;;;1.23;;
56401;SDS011;42299;35.160;26.100;2022-08-03T07:59:44;3.30;;;1.50;;
56401;SDS011;42299;35.160;26.100;2022-08-03T08:01:06;2.70;;;1.20;;
56401;SDS011;42299;35.160;26.100;2022-08-03T08:02:29;4.35;;;1.20;;
56401;SDS011;42299;35.160;26.100;2022-08-03T08:03:50;2.55;;;1.25;;
56401;SDS011;42299;35.160;26.100;2022-08-03T08:05:13;4.20;;;1.52;;
56401;SDS011;42299;35.160;26.100;2022-08-03T08:06:35;4.20;;;1.40;;
56401;SDS011;42299;35.160;26.100;2022-08-03T08:08:00;5.90;;;1.60;;
56401;SDS011;42299;35.160;26.100;2022-08-03T08:09:23;4.65;;;1.25;;
56401;SDS011;42299;35.160;26.100;2022-08-03T08:10:45;5.57;;;1.90;;
56401;SDS011;42299;35.160;26.100;2022-08-03T08:12:09;3.45;;;1.45;;
56401;SDS011;42299;35.160;26.100;2022-08-03T08:13:32;2.22;;;1.10;;
56401;SDS011;42299;35.160;26.100;2022-08-03T08:14:56;2.60;;;1.38;;
56401;SDS011;42299;35.160;26.100;2022-08-03T08:16:19;7.85;;;1.77;;
56401;SDS011;42299;35.160;26.100;2022-08-03T08:17:42;6.93;;;1.23;;
56401;SDS011;42299;35.160;26.100;2022-08-03T08:19:05;3.92;;;1.25;;
56401;SDS011;42299;35.160;26.100;2022-08-03T08:20:28;3.67;;;1.33;;
56401;SDS011;42299;35.160;26.100;2022-08-03T08:21:52;5.35;;;1.58;;
56401;SDS011;42299;35.160;26.100;2022-08-03T08:23:16;3.25;;;1.52;;
56401;SDS011;42299;35.160;26.100;2022-08-03T08:24:42;6.05;;;1.40;;
56401;SDS011;42299;35.160;26.100;2022-08-03T08:26:04;3.20;;;1.20;;
56401;SDS011;42299;35.160;26.100;2022-08-03T08:27:27;6.63;;;1.40;;